Terminal Aerodrome Forecast
Issued by NWS

Home | Current Version | Previous Version | Text Only | Print | Product List | Glossary On
Versions: 1 2 3 4 5 6 7 8 9 10 11 12 13 14 15 16 17 18 19 20 21 22 23 24 25 26 27 28 29 30 31
000
FTUS41 KRLX 241851 AAA
TAFCKB
TAF AMD
KCKB 241851Z 2419/2518 36009KT 2SM +SHRA BR OVC003
      TEMPO 2419/2422 4SM SHRA BR OVC008
     FM242200 12003KT 4SM SHRA BR OVC015
     FM250200 15007KT 4SM +SHRA OVC060
     FM251000 19009G17KT 3SM +SHRA OVC050
     FM251300 20011G25KT 3SM +SHRA OVC010
     FM251500 20010G20KT 5SM +SHRA OVC008
     FM251700 25010G19KT P6SM BKN010=

USA.gov is the U.S. government's official web portal to all federal, state and local government web resources and services.